sensor_id;sensor_type;location;lat;lon;timestamp;temperature;humidity
4727;DHT22;2377;51.734;8.950;2023-03-18T00:00:42;11.00;1.00
4727;DHT22;2377;51.734;8.950;2023-03-18T00:03:10;11.00;1.00
4727;DHT22;2377;51.734;8.950;2023-03-18T00:05:37;10.90;1.00
4727;DHT22;2377;51.734;8.950;2023-03-18T00:08:05;11.00;1.00
4727;DHT22;2377;51.734;8.950;2023-03-18T00:10:33;11.00;1.00
4727;DHT22;2377;51.734;8.950;2023-03-18T00:13:00;11.00;1.00
4727;DHT22;2377;51.734;8.950;2023-03-18T00:15:30;11.00;1.00
4727;DHT22;2377;51.734;8.950;2023-03-18T00:17:57;11.00;1.00
4727;DHT22;2377;51.734;8.950;2023-03-18T00:20:24;10.90;1.00
4727;DHT22;2377;51.734;8.950;2023-03-18T00:23:03;10.90;1.00
4727;DHT22;2377;51.734;8.950;2023-03-18T00:25:33;11.00;1.00
4727;DHT22;2377;51.734;8.950;2023-03-18T00:28:00;11.00;1.00
4727;DHT22;2377;51.734;8.950;2023-03-18T00:30:29;10.90;1.00
4727;DHT22;2377;51.734;8.950;2023-03-18T00:32:57;10.90;1.00
4727;DHT22;2377;51.734;8.950;2023-03-18T00:35:25;10.80;1.00
4727;DHT22;2377;51.734;8.950;2023-03-18T00:37:53;10.80;1.00
4727;DHT22;2377;51.734;8.950;2023-03-18T00:40:20;10.80;1.00
4727;DHT22;2377;51.734;8.950;2023-03-18T00:42:54;10.80;1.00
4727;DHT22;2377;51.734;8.950;2023-03-18T00:45:36;10.70;1.00
4727;DHT22;2377;51.734;8.950;2023-03-18T00:48:04;10.60;1.00
4727;DHT22;2377;51.734;8.950;2023-03-18T00:50:32;10.70;6.10
4727;DHT22;2377;51.734;8.950;2023-03-18T00:52:59;10.60;11.00
4727;DHT22;2377;51.734;8.950;2023-03-18T00:55:27;10.60;10.10
4727;DHT22;2377;51.734;8.950;2023-03-18T00:57:54;10.60;21.60
4727;DHT22;2377;51.734;8.950;2023-03-18T01:00:22;10.60;38.00
4727;DHT22;2377;51.734;8.950;2023-03-18T01:02:52;10.60;96.50
4727;DHT22;2377;51.734;8.950;2023-03-18T01:05:19;10.50;99.90
4727;DHT22;2377;51.734;8.950;2023-03-18T01:07:47;10.50;99.90
4727;DHT22;2377;51.734;8.950;2023-03-18T01:10:15;10.50;87.40
4727;DHT22;2377;51.734;8.950;2023-03-18T01:12:43;10.50;77.90
4727;DHT22;2377;51.734;8.950;2023-03-18T01:15:13;10.50;98.60
4727;DHT22;2377;51.734;8.950;2023-03-18T01:17:42;10.60;99.90
4727;DHT22;2377;51.734;8.950;2023-03-18T01:20:14;10.60;86.60
4727;DHT22;2377;51.734;8.950;2023-03-18T01:22:44;10.60;97.60
4727;DHT22;2377;51.734;8.950;2023-03-18T01:25:12;10.60;99.90
4727;DHT22;2377;51.734;8.950;2023-03-18T01:27:41;10.50;99.90
4727;DHT22;2377;51.734;8.950;2023-03-18T01:30:10;10.50;99.90
4727;DHT22;2377;51.734;8.950;2023-03-18T01:32:39;10.50;99.90
4727;DHT22;2377;51.734;8.950;2023-03-18T01:35:09;10.50;99.90
4727;DHT22;2377;51.734;8.950;2023-03-18T01:37:38;10.50;99.90
4727;DHT22;2377;51.734;8.950;2023-03-18T01:40:08;10.50;99.90
4727;DHT22;2377;51.734;8.950;2023-03-18T01:42:36;10.50;99.90
4727;DHT22;2377;51.734;8.950;2023-03-18T01:45:16;10.50;99.90
4727;DHT22;2377;51.734;8.950;2023-03-18T01:47:46;10.50;99.90
4727;DHT22;2377;51.734;8.950;2023-03-18T01:50:17;10.50;99.90
4727;DHT22;2377;51.734;8.950;2023-03-18T01:52:51;10.50;99.90
4727;DHT22;2377;51.734;8.950;2023-03-18T01:55:23;10.50;99.90
4727;DHT22;2377;51.734;8.950;2023-03-18T01:57:52;10.50;99.90
4727;DHT22;2377;51.734;8.950;2023-03-18T02:00:20;10.50;99.90
4727;DHT22;2377;51.734;8.950;2023-03-18T02:02:50;10.40;99.90
4727;DHT22;2377;51.734;8.950;2023-03-18T02:05:22;10.40;99.90
4727;DHT22;2377;51.734;8.950;2023-03-18T02:07:50;10.40;99.90
4727;DHT22;2377;51.734;8.950;2023-03-18T02:10:20;10.30;99.90
4727;DHT22;2377;51.734;8.950;2023-03-18T02:12:53;10.30;99.90
4727;DHT22;2377;51.734;8.950;2023-03-18T02:15:24;10.30;99.90
4727;DHT22;2377;51.734;8.950;2023-03-18T02:17:57;10.30;99.90
4727;DHT22;2377;51.734;8.950;2023-03-18T02:20:38;10.30;99.90
4727;DHT22;2377;51.734;8.950;2023-03-18T02:23:23;10.30;99.90
4727;DHT22;2377;51.734;8.950;2023-03-18T02:25:59;10.30;99.90
4727;DHT22;2377;51.734;8.950;2023-03-18T02:28:35;10.30;99.90
4727;DHT22;2377;51.734;8.950;2023-03-18T02:31:07;10.30;99.90
4727;DHT22;2377;51.734;8.950;2023-03-18T02:33:38;10.30;99.90
4727;DHT22;2377;51.734;8.950;2023-03-18T02:36:11;10.20;99.90
4727;DHT22;2377;51.734;8.950;2023-03-18T02:38:44;10.20;99.90
4727;DHT22;2377;51.734;8.950;2023-03-18T02:41:14;10.20;99.90
4727;DHT22;2377;51.734;8.950;2023-03-18T02:43:44;10.20;99.90
4727;DHT22;2377;51.734;8.950;2023-03-18T02:46:19;10.30;99.90
4727;DHT22;2377;51.734;8.950;2023-03-18T02:48:57;10.20;99.90
4727;DHT22;2377;51.734;8.950;2023-03-18T02:51:26;10.30;99.90
4727;DHT22;2377;51.734;8.950;2023-03-18T02:53:56;10.20;99.90
4727;DHT22;2377;51.734;8.950;2023-03-18T02:56:26;10.20;99.90
4727;DHT22;2377;51.734;8.950;2023-03-18T02:58:55;10.20;99.90
4727;DHT22;2377;51.734;8.950;2023-03-18T03:01:22;10.20;99.90
4727;DHT22;2377;51.734;8.950;2023-03-18T03:03:49;10.30;99.90
4727;DHT22;2377;51.734;8.950;2023-03-18T03:06:17;10.20;99.90
4727;DHT22;2377;51.734;8.950;2023-03-18T03:08:44;10.20;99.90
4727;DHT22;2377;51.734;8.950;2023-03-18T03:11:11;10.20;99.90
4727;DHT22;2377;51.734;8.950;2023-03-18T03:13:40;10.20;99.90
4727;DHT22;2377;51.734;8.950;2023-03-18T03:16:11;10.20;99.90
4727;DHT22;2377;51.734;8.950;2023-03-18T03:18:40;10.30;99.90
4727;DHT22;2377;51.734;8.950;2023-03-18T03:21:08;10.30;99.90
4727;DHT22;2377;51.734;8.950;2023-03-18T03:23:36;10.30;99.90
4727;DHT22;2377;51.734;8.950;2023-03-18T03:26:04;10.20;99.90
4727;DHT22;2377;51.734;8.950;2023-03-18T03:28:32;10.20;99.90
4727;DHT22;2377;51.734;8.950;2023-03-18T03:31:00;10.20;99.90
4727;DHT22;2377;51.734;8.950;2023-03-18T03:33:28;10.20;99.90
4727;DHT22;2377;51.734;8.950;2023-03-18T03:35:55;10.20;99.90
4727;DHT22;2377;51.734;8.950;2023-03-18T03:38:22;10.20;99.90
4727;DHT22;2377;51.734;8.950;2023-03-18T03:40:50;10.20;99.90
4727;DHT22;2377;51.734;8.950;2023-03-18T03:43:17;10.20;99.90
4727;DHT22;2377;51.734;8.950;2023-03-18T03:45:44;10.20;99.90
4727;DHT22;2377;51.734;8.950;2023-03-18T03:48:11;10.20;99.90
4727;DHT22;2377;51.734;8.950;2023-03-18T03:50:40;10.20;99.90
4727;DHT22;2377;51.734;8.950;2023-03-18T03:53:07;10.20;99.90
4727;DHT22;2377;51.734;8.950;2023-03-18T03:55:35;10.10;99.90
4727;DHT22;2377;51.734;8.950;2023-03-18T03:58:04;10.10;99.90
4727;DHT22;2377;51.734;8.950;2023-03-18T04:00:31;10.10;99.90
4727;DHT22;2377;51.734;8.950;2023-03-18T04:02:58;10.10;99.90
4727;DHT22;2377;51.734;8.950;2023-03-18T04:05:25;10.10;99.90
4727;DHT22;2377;51.734;8.950;2023-03-18T04:07:54;10.10;99.90
4727;DHT22;2377;51.734;8.950;2023-03-18T04:10:24;10.00;99.90
4727;DHT22;2377;51.734;8.950;2023-03-18T04:12:53;10.00;99.90
4727;DHT22;2377;51.734;8.950;2023-03-18T04:15:20;10.00;99.90
4727;DHT22;2377;51.734;8.950;2023-03-18T04:17:48;10.00;99.90
4727;DHT22;2377;51.734;8.950;2023-03-18T04:20:15;9.90;99.90
4727;DHT22;2377;51.734;8.950;2023-03-18T04:22:43;9.80;99.90
4727;DHT22;2377;51.734;8.950;2023-03-18T04:25:12;9.80;99.90
4727;DHT22;2377;51.734;8.950;2023-03-18T04:27:40;9.70;99.90
4727;DHT22;2377;51.734;8.950;2023-03-18T04:30:09;9.60;99.90
4727;DHT22;2377;51.734;8.950;2023-03-18T04:32:38;9.60;99.90
4727;DHT22;2377;51.734;8.950;2023-03-18T04:35:05;9.60;99.90
4727;DHT22;2377;51.734;8.950;2023-03-18T04:37:33;9.50;99.90
4727;DHT22;2377;51.734;8.950;2023-03-18T04:40:01;9.50;99.90
4727;DHT22;2377;51.734;8.950;2023-03-18T04:42:31;9.40;99.90
4727;DHT22;2377;51.734;8.950;2023-03-18T04:44:58;9.40;99.90
4727;DHT22;2377;51.734;8.950;2023-03-18T04:47:26;9.40;99.90
4727;DHT22;2377;51.734;8.950;2023-03-18T04:49:53;9.40;99.90
4727;DHT22;2377;51.734;8.950;2023-03-18T04:52:20;9.40;99.90
4727;DHT22;2377;51.734;8.950;2023-03-18T04:54:47;9.50;99.90
4727;DHT22;2377;51.734;8.950;2023-03-18T04:57:14;9.40;99.90
4727;DHT22;2377;51.734;8.950;2023-03-18T04:59:44;9.40;99.90
4727;DHT22;2377;51.734;8.950;2023-03-18T05:02:11;9.30;99.90
4727;DHT22;2377;51.734;8.950;2023-03-18T05:04:38;9.30;99.90
4727;DHT22;2377;51.734;8.950;2023-03-18T05:07:05;9.20;99.90
4727;DHT22;2377;51.734;8.950;2023-03-18T05:09:33;9.20;99.90
4727;DHT22;2377;51.734;8.950;2023-03-18T05:12:00;9.10;99.90
4727;DHT22;2377;51.734;8.950;2023-03-18T05:14:26;9.10;99.90
4727;DHT22;2377;51.734;8.950;2023-03-18T05:16:55;9.00;99.90
4727;DHT22;2377;51.734;8.950;2023-03-18T05:19:22;9.00;99.90
4727;DHT22;2377;51.734;8.950;2023-03-18T05:21:49;9.00;99.90
4727;DHT22;2377;51.734;8.950;2023-03-18T05:24:16;9.00;99.90
4727;DHT22;2377;51.734;8.950;2023-03-18T05:26:43;9.00;99.90
4727;DHT22;2377;51.734;8.950;2023-03-18T05:29:10;9.00;99.90
4727;DHT22;2377;51.734;8.950;2023-03-18T05:31:37;8.90;99.90
4727;DHT22;2377;51.734;8.950;2023-03-18T05:34:05;8.90;99.90
4727;DHT22;2377;51.734;8.950;2023-03-18T05:36:33;9.00;99.90
4727;DHT22;2377;51.734;8.950;2023-03-18T05:39:01;9.00;99.90
4727;DHT22;2377;51.734;8.950;2023-03-18T05:41:28;9.00;99.90
4727;DHT22;2377;51.734;8.950;2023-03-18T05:43:55;9.00;99.90
4727;DHT22;2377;51.734;8.950;2023-03-18T05:46:22;8.90;99.90
4727;DHT22;2377;51.734;8.950;2023-03-18T05:48:49;8.90;99.90
4727;DHT22;2377;51.734;8.950;2023-03-18T05:51:17;8.80;99.90
4727;DHT22;2377;51.734;8.950;2023-03-18T05:53:45;8.80;99.90
4727;DHT22;2377;51.734;8.950;2023-03-18T05:56:12;8.70;99.90
4727;DHT22;2377;51.734;8.950;2023-03-18T05:58:39;8.60;99.90
4727;DHT22;2377;51.734;8.950;2023-03-18T06:01:06;8.60;99.90
4727;DHT22;2377;51.734;8.950;2023-03-18T06:03:33;8.60;99.90
4727;DHT22;2377;51.734;8.950;2023-03-18T06:06:01;8.60;99.90
4727;DHT22;2377;51.734;8.950;2023-03-18T06:08:30;8.60;99.90
4727;DHT22;2377;51.734;8.950;2023-03-18T06:10:57;8.50;99.90
4727;DHT22;2377;51.734;8.950;2023-03-18T06:13:24;8.50;99.90
4727;DHT22;2377;51.734;8.950;2023-03-18T06:15:56;8.50;99.90
4727;DHT22;2377;51.734;8.950;2023-03-18T06:18:23;8.50;99.90
4727;DHT22;2377;51.734;8.950;2023-03-18T06:20:50;8.40;99.90
4727;DHT22;2377;51.734;8.950;2023-03-18T06:23:17;8.40;99.90
4727;DHT22;2377;51.734;8.950;2023-03-18T06:25:46;8.50;99.90
4727;DHT22;2377;51.734;8.950;2023-03-18T06:28:14;8.40;99.90
4727;DHT22;2377;51.734;8.950;2023-03-18T06:30:41;8.40;99.90
4727;DHT22;2377;51.734;8.950;2023-03-18T06:33:08;8.50;99.90
4727;DHT22;2377;51.734;8.950;2023-03-18T06:35:35;8.50;99.90
4727;DHT22;2377;51.734;8.950;2023-03-18T06:38:02;8.50;99.90
4727;DHT22;2377;51.734;8.950;2023-03-18T06:40:29;8.60;99.90
4727;DHT22;2377;51.734;8.950;2023-03-18T06:42:57;8.60;99.90
4727;DHT22;2377;51.734;8.950;2023-03-18T06:45:24;8.60;99.90
4727;DHT22;2377;51.734;8.950;2023-03-18T06:47:52;8.80;99.90
4727;DHT22;2377;51.734;8.950;2023-03-18T06:50:19;8.90;99.90
4727;DHT22;2377;51.734;8.950;2023-03-18T06:52:46;9.00;99.90
4727;DHT22;2377;51.734;8.950;2023-03-18T06:55:14;9.10;99.90
4727;DHT22;2377;51.734;8.950;2023-03-18T06:57:41;9.20;99.90
4727;DHT22;2377;51.734;8.950;2023-03-18T07:00:10;9.30;99.90
4727;DHT22;2377;51.734;8.950;2023-03-18T07:02:38;9.30;99.90
4727;DHT22;2377;51.734;8.950;2023-03-18T07:05:07;9.30;99.90
4727;DHT22;2377;51.734;8.950;2023-03-18T07:07:34;9.40;99.90
4727;DHT22;2377;51.734;8.950;2023-03-18T07:10:02;9.50;99.90
4727;DHT22;2377;51.734;8.950;2023-03-18T07:12:30;9.50;99.90
4727;DHT22;2377;51.734;8.950;2023-03-18T07:14:57;9.50;99.90
4727;DHT22;2377;51.734;8.950;2023-03-18T07:17:26;9.50;99.90
4727;DHT22;2377;51.734;8.950;2023-03-18T07:19:53;9.60;99.90
4727;DHT22;2377;51.734;8.950;2023-03-18T07:22:21;9.80;99.90
4727;DHT22;2377;51.734;8.950;2023-03-18T07:24:49;9.90;99.90
4727;DHT22;2377;51.734;8.950;2023-03-18T07:27:16;10.00;99.90
4727;DHT22;2377;51.734;8.950;2023-03-18T07:29:43;10.10;99.90
4727;DHT22;2377;51.734;8.950;2023-03-18T07:32:10;10.30;99.90
4727;DHT22;2377;51.734;8.950;2023-03-18T07:34:39;10.50;99.90
4727;DHT22;2377;51.734;8.950;2023-03-18T07:37:11;10.60;99.90
4727;DHT22;2377;51.734;8.950;2023-03-18T07:39:37;10.70;99.90
4727;DHT22;2377;51.734;8.950;2023-03-18T07:42:05;10.80;99.90
4727;DHT22;2377;51.734;8.950;2023-03-18T07:44:33;11.00;99.90
4727;DHT22;2377;51.734;8.950;2023-03-18T07:47:01;11.10;99.90
4727;DHT22;2377;51.734;8.950;2023-03-18T07:49:29;11.20;99.90
4727;DHT22;2377;51.734;8.950;2023-03-18T07:51:59;11.30;99.90
4727;DHT22;2377;51.734;8.950;2023-03-18T07:54:26;11.50;99.90
4727;DHT22;2377;51.734;8.950;2023-03-18T07:56:53;11.60;99.90
4727;DHT22;2377;51.734;8.950;2023-03-18T07:59:21;11.80;99.90
4727;DHT22;2377;51.734;8.950;2023-03-18T08:01:49;11.90;99.90
4727;DHT22;2377;51.734;8.950;2023-03-18T08:04:16;11.90;99.90
4727;DHT22;2377;51.734;8.950;2023-03-18T08:06:43;11.90;99.90
4727;DHT22;2377;51.734;8.950;2023-03-18T08:09:12;11.90;99.90
4727;DHT22;2377;51.734;8.950;2023-03-18T08:11:41;11.90;99.90
4727;DHT22;2377;51.734;8.950;2023-03-18T08:14:08;11.80;99.90
4727;DHT22;2377;51.734;8.950;2023-03-18T08:16:35;11.90;99.90
4727;DHT22;2377;51.734;8.950;2023-03-18T08:19:02;12.10;99.90
4727;DHT22;2377;51.734;8.950;2023-03-18T08:21:29;12.30;99.90
4727;DHT22;2377;51.734;8.950;2023-03-18T08:23:56;12.30;99.90
4727;DHT22;2377;51.734;8.950;2023-03-18T08:26:24;12.40;99.90
4727;DHT22;2377;51.734;8.950;2023-03-18T08:28:51;12.40;99.90
4727;DHT22;2377;51.734;8.950;2023-03-18T08:31:18;12.30;99.90
4727;DHT22;2377;51.734;8.950;2023-03-18T08:33:45;12.30;99.90
4727;DHT22;2377;51.734;8.950;2023-03-18T08:36:15;12.30;99.90
4727;DHT22;2377;51.734;8.950;2023-03-18T08:38:43;12.20;99.90
4727;DHT22;2377;51.734;8.950;2023-03-18T08:41:10;12.20;99.90
4727;DHT22;2377;51.734;8.950;2023-03-18T08:43:38;12.30;99.90
4727;DHT22;2377;51.734;8.950;2023-03-18T08:46:05;12.30;89.40
4727;DHT22;2377;51.734;8.950;2023-03-18T08:48:32;12.30;1.00
4727;DHT22;2377;51.734;8.950;2023-03-18T08:51:02;12.50;1.00
4727;DHT22;2377;51.734;8.950;2023-03-18T08:53:29;12.50;1.00
4727;DHT22;2377;51.734;8.950;2023-03-18T08:55:56;12.60;1.00
4727;DHT22;2377;51.734;8.950;2023-03-18T08:58:24;12.60;1.00
4727;DHT22;2377;51.734;8.950;2023-03-18T09:00:53;12.90;1.00
4727;DHT22;2377;51.734;8.950;2023-03-18T09:03:21;13.10;1.00
4727;DHT22;2377;51.734;8.950;2023-03-18T09:05:49;13.30;1.00
4727;DHT22;2377;51.734;8.950;2023-03-18T09:08:17;13.30;1.00
4727;DHT22;2377;51.734;8.950;2023-03-18T09:10:45;13.30;1.00
4727;DHT22;2377;51.734;8.950;2023-03-18T09:13:12;13.20;1.00
4727;DHT22;2377;51.734;8.950;2023-03-18T09:15:40;13.10;1.00
4727;DHT22;2377;51.734;8.950;2023-03-18T09:18:08;13.10;1.00
4727;DHT22;2377;51.734;8.950;2023-03-18T09:20:35;13.10;1.00
4727;DHT22;2377;51.734;8.950;2023-03-18T09:23:03;13.10;1.00
4727;DHT22;2377;51.734;8.950;2023-03-18T09:25:30;13.10;1.00
4727;DHT22;2377;51.734;8.950;2023-03-18T09:27:58;13.00;1.00
4727;DHT22;2377;51.734;8.950;2023-03-18T09:30:26;13.10;1.00
4727;DHT22;2377;51.734;8.950;2023-03-18T09:32:53;13.10;1.00
4727;DHT22;2377;51.734;8.950;2023-03-18T09:35:22;13.00;1.00
4727;DHT22;2377;51.734;8.950;2023-03-18T09:37:49;13.00;1.00
4727;DHT22;2377;51.734;8.950;2023-03-18T09:40:23;13.00;1.00
4727;DHT22;2377;51.734;8.950;2023-03-18T09:43:00;12.90;1.00
4727;DHT22;2377;51.734;8.950;2023-03-18T09:45:45;13.00;1.00
4727;DHT22;2377;51.734;8.950;2023-03-18T09:48:43;13.00;1.00
4727;DHT22;2377;51.734;8.950;2023-03-18T09:51:35;13.10;1.00
4727;DHT22;2377;51.734;8.950;2023-03-18T09:54:14;13.30;1.00
4727;DHT22;2377;51.734;8.950;2023-03-18T09:56:45;13.40;1.00
4727;DHT22;2377;51.734;8.950;2023-03-18T09:59:16;13.60;1.00
4727;DHT22;2377;51.734;8.950;2023-03-18T10:01:51;13.90;1.00
4727;DHT22;2377;51.734;8.950;2023-03-18T10:04:23;14.00;1.00
4727;DHT22;2377;51.734;8.950;2023-03-18T10:06:56;14.00;1.00
4727;DHT22;2377;51.734;8.950;2023-03-18T10:09:29;14.00;1.00
4727;DHT22;2377;51.734;8.950;2023-03-18T10:12:05;14.00;1.00
4727;DHT22;2377;51.734;8.950;2023-03-18T10:14:44;13.80;1.00
4727;DHT22;2377;51.734;8.950;2023-03-18T10:17:17;13.80;1.00
4727;DHT22;2377;51.734;8.950;2023-03-18T10:19:50;13.90;1.00
4727;DHT22;2377;51.734;8.950;2023-03-18T10:22:48;14.10;1.00
4727;DHT22;2377;51.734;8.950;2023-03-18T10:25:25;14.10;1.00
4727;DHT22;2377;51.734;8.950;2023-03-18T10:28:31;14.10;1.00
4727;DHT22;2377;51.734;8.950;2023-03-18T10:31:19;14.20;1.00
4727;DHT22;2377;51.734;8.950;2023-03-18T10:33:56;14.50;1.00
4727;DHT22;2377;51.734;8.950;2023-03-18T10:36:30;14.60;1.00
4727;DHT22;2377;51.734;8.950;2023-03-18T10:39:11;14.70;1.00
4727;DHT22;2377;51.734;8.950;2023-03-18T10:41:42;14.80;1.00
4727;DHT22;2377;51.734;8.950;2023-03-18T10:44:17;14.80;1.00
4727;DHT22;2377;51.734;8.950;2023-03-18T10:46:54;14.90;1.00
4727;DHT22;2377;51.734;8.950;2023-03-18T10:49:27;15.00;1.00
4727;DHT22;2377;51.734;8.950;2023-03-18T10:52:00;15.00;1.00
4727;DHT22;2377;51.734;8.950;2023-03-18T10:54:36;14.90;1.00
4727;DHT22;2377;51.734;8.950;2023-03-18T10:57:08;14.90;1.00
4727;DHT22;2377;51.734;8.950;2023-03-18T10:59:39;15.00;1.00
4727;DHT22;2377;51.734;8.950;2023-03-18T11:02:14;15.00;1.00
4727;DHT22;2377;51.734;8.950;2023-03-18T11:04:47;15.10;1.00
4727;DHT22;2377;51.734;8.950;2023-03-18T11:07:21;15.10;1.00
4727;DHT22;2377;51.734;8.950;2023-03-18T11:09:52;15.10;1.00
4727;DHT22;2377;51.734;8.950;2023-03-18T11:12:23;15.30;1.00
4727;DHT22;2377;51.734;8.950;2023-03-18T11:14:53;15.40;1.00
4727;DHT22;2377;51.734;8.950;2023-03-18T11:17:24;15.60;1.00
4727;DHT22;2377;51.734;8.950;2023-03-18T11:20:01;15.60;1.00
4727;DHT22;2377;51.734;8.950;2023-03-18T11:22:33;15.60;1.00
4727;DHT22;2377;51.734;8.950;2023-03-18T11:25:11;15.50;1.00
4727;DHT22;2377;51.734;8.950;2023-03-18T11:27:42;15.60;1.00
4727;DHT22;2377;51.734;8.950;2023-03-18T11:30:14;15.60;1.00
4727;DHT22;2377;51.734;8.950;2023-03-18T11:32:51;15.60;1.00
4727;DHT22;2377;51.734;8.950;2023-03-18T11:35:21;15.50;1.00
4727;DHT22;2377;51.734;8.950;2023-03-18T11:37:50;15.40;1.00
4727;DHT22;2377;51.734;8.950;2023-03-18T11:40:27;15.40;1.00
4727;DHT22;2377;51.734;8.950;2023-03-18T11:42:58;15.40;1.00
4727;DHT22;2377;51.734;8.950;2023-03-18T11:45:42;15.40;1.00
4727;DHT22;2377;51.734;8.950;2023-03-18T11:48:17;15.40;1.00
4727;DHT22;2377;51.734;8.950;2023-03-18T11:57:14;15.50;1.00
4727;DHT22;2377;51.734;8.950;2023-03-18T12:03:06;15.40;1.00
4727;DHT22;2377;51.734;8.950;2023-03-18T12:06:04;15.30;1.00
4727;DHT22;2377;51.734;8.950;2023-03-18T12:08:46;15.30;1.00
4727;DHT22;2377;51.734;8.950;2023-03-18T12:11:38;15.30;1.00
4727;DHT22;2377;51.734;8.950;2023-03-18T12:14:19;15.30;1.00
4727;DHT22;2377;51.734;8.950;2023-03-18T12:17:00;15.40;1.00
4727;DHT22;2377;51.734;8.950;2023-03-18T12:19:59;15.50;1.00
4727;DHT22;2377;51.734;8.950;2023-03-18T12:23:00;15.50;1.00
4727;DHT22;2377;51.734;8.950;2023-03-18T12:25:37;15.60;1.00
4727;DHT22;2377;51.734;8.950;2023-03-18T12:28:33;15.50;1.00
4727;DHT22;2377;51.734;8.950;2023-03-18T12:31:45;15.60;1.00
4727;DHT22;2377;51.734;8.950;2023-03-18T12:34:36;15.60;1.00
4727;DHT22;2377;51.734;8.950;2023-03-18T12:37:26;15.80;1.00
4727;DHT22;2377;51.734;8.950;2023-03-18T12:43:18;15.80;1.00
4727;DHT22;2377;51.734;8.950;2023-03-18T12:46:01;15.90;1.00
4727;DHT22;2377;51.734;8.950;2023-03-18T12:48:41;16.00;1.00
4727;DHT22;2377;51.734;8.950;2023-03-18T12:51:19;16.00;1.00
4727;DHT22;2377;51.734;8.950;2023-03-18T12:53:52;16.00;1.00
4727;DHT22;2377;51.734;8.950;2023-03-18T12:56:25;16.00;1.00
4727;DHT22;2377;51.734;8.950;2023-03-18T12:59:02;16.00;1.00
4727;DHT22;2377;51.734;8.950;2023-03-18T13:01:35;16.10;1.00
4727;DHT22;2377;51.734;8.950;2023-03-18T13:04:11;16.20;1.00
4727;DHT22;2377;51.734;8.950;2023-03-18T13:06:48;16.30;1.00
4727;DHT22;2377;51.734;8.950;2023-03-18T13:09:26;16.50;1.00
4727;DHT22;2377;51.734;8.950;2023-03-18T13:12:06;16.50;1.00
4727;DHT22;2377;51.734;8.950;2023-03-18T13:14:51;16.50;1.00
4727;DHT22;2377;51.734;8.950;2023-03-18T13:17:26;16.50;1.00
4727;DHT22;2377;51.734;8.950;2023-03-18T13:20:00;16.50;1.00
4727;DHT22;2377;51.734;8.950;2023-03-18T13:22:54;16.50;1.00
4727;DHT22;2377;51.734;8.950;2023-03-18T13:25:48;16.50;1.00
4727;DHT22;2377;51.734;8.950;2023-03-18T13:28:37;16.50;1.00
4727;DHT22;2377;51.734;8.950;2023-03-18T13:31:34;16.50;1.00
4727;DHT22;2377;51.734;8.950;2023-03-18T13:34:37;16.50;1.00
4727;DHT22;2377;51.734;8.950;2023-03-18T13:37:30;16.40;1.00
4727;DHT22;2377;51.734;8.950;2023-03-18T13:40:31;16.50;1.00
4727;DHT22;2377;51.734;8.950;2023-03-18T13:43:18;16.40;1.00
4727;DHT22;2377;51.734;8.950;2023-03-18T13:45:50;16.40;1.00
4727;DHT22;2377;51.734;8.950;2023-03-18T13:48:24;16.40;1.00
4727;DHT22;2377;51.734;8.950;2023-03-18T13:50:56;16.50;1.00
4727;DHT22;2377;51.734;8.950;2023-03-18T13:53:27;16.50;1.00
4727;DHT22;2377;51.734;8.950;2023-03-18T13:56:02;16.50;1.00
4727;DHT22;2377;51.734;8.950;2023-03-18T13:58:34;16.50;1.00
4727;DHT22;2377;51.734;8.950;2023-03-18T14:01:15;16.50;1.00
4727;DHT22;2377;51.734;8.950;2023-03-18T14:06:58;16.40;1.00
4727;DHT22;2377;51.734;8.950;2023-03-18T14:10:10;16.50;1.00
4727;DHT22;2377;51.734;8.950;2023-03-18T14:12:44;16.50;1.00
4727;DHT22;2377;51.734;8.950;2023-03-18T14:15:38;16.50;1.00
4727;DHT22;2377;51.734;8.950;2023-03-18T14:18:22;16.50;1.00
4727;DHT22;2377;51.734;8.950;2023-03-18T14:20:52;16.50;1.00
4727;DHT22;2377;51.734;8.950;2023-03-18T14:23:35;16.50;1.00
4727;DHT22;2377;51.734;8.950;2023-03-18T14:26:07;16.50;1.00
4727;DHT22;2377;51.734;8.950;2023-03-18T14:28:47;16.50;1.00
4727;DHT22;2377;51.734;8.950;2023-03-18T14:31:35;16.50;1.00
4727;DHT22;2377;51.734;8.950;2023-03-18T14:37:24;16.60;1.00
4727;DHT22;2377;51.734;8.950;2023-03-18T14:40:05;16.60;1.00
4727;DHT22;2377;51.734;8.950;2023-03-18T14:42:52;16.50;1.00
4727;DHT22;2377;51.734;8.950;2023-03-18T14:45:26;16.50;1.00
4727;DHT22;2377;51.734;8.950;2023-03-18T14:47:58;16.60;1.00
4727;DHT22;2377;51.734;8.950;2023-03-18T14:50:36;16.50;1.00
4727;DHT22;2377;51.734;8.950;2023-03-18T14:53:17;16.50;1.00
4727;DHT22;2377;51.734;8.950;2023-03-18T14:55:51;16.50;1.00
4727;DHT22;2377;51.734;8.950;2023-03-18T14:58:21;16.50;1.00
4727;DHT22;2377;51.734;8.950;2023-03-18T15:00:51;16.50;1.00
4727;DHT22;2377;51.734;8.950;2023-03-18T15:03:22;16.50;1.00
4727;DHT22;2377;51.734;8.950;2023-03-18T15:05:55;16.40;1.00
4727;DHT22;2377;51.734;8.950;2023-03-18T15:08:27;16.30;1.00
4727;DHT22;2377;51.734;8.950;2023-03-18T15:10:56;16.30;1.00
4727;DHT22;2377;51.734;8.950;2023-03-18T15:13:26;16.30;1.00
4727;DHT22;2377;51.734;8.950;2023-03-18T15:15:54;16.30;1.00
4727;DHT22;2377;51.734;8.950;2023-03-18T15:18:24;16.40;1.00
4727;DHT22;2377;51.734;8.950;2023-03-18T15:20:56;16.50;1.00
4727;DHT22;2377;51.734;8.950;2023-03-18T15:23:29;16.60;1.00
4727;DHT22;2377;51.734;8.950;2023-03-18T15:25:58;16.70;1.00
4727;DHT22;2377;51.734;8.950;2023-03-18T15:28:27;16.70;1.00
4727;DHT22;2377;51.734;8.950;2023-03-18T15:30:56;16.80;1.00
4727;DHT22;2377;51.734;8.950;2023-03-18T15:33:29;16.80;1.00
4727;DHT22;2377;51.734;8.950;2023-03-18T15:36:03;16.80;1.00
4727;DHT22;2377;51.734;8.950;2023-03-18T15:38:31;16.90;1.00
4727;DHT22;2377;51.734;8.950;2023-03-18T15:41:01;16.90;1.00
4727;DHT22;2377;51.734;8.950;2023-03-18T15:43:40;16.80;1.00
4727;DHT22;2377;51.734;8.950;2023-03-18T15:46:15;16.80;1.00
4727;DHT22;2377;51.734;8.950;2023-03-18T15:48:46;16.80;1.00
4727;DHT22;2377;51.734;8.950;2023-03-18T15:51:26;16.70;1.00
4727;DHT22;2377;51.734;8.950;2023-03-18T15:53:56;16.80;1.00
4727;DHT22;2377;51.734;8.950;2023-03-18T15:56:29;16.80;1.00
4727;DHT22;2377;51.734;8.950;2023-03-18T15:59:03;16.80;1.00
4727;DHT22;2377;51.734;8.950;2023-03-18T16:01:35;16.80;1.00
4727;DHT22;2377;51.734;8.950;2023-03-18T16:04:03;16.80;1.00
4727;DHT22;2377;51.734;8.950;2023-03-18T16:06:32;16.70;1.00
4727;DHT22;2377;51.734;8.950;2023-03-18T16:09:00;16.70;1.00
4727;DHT22;2377;51.734;8.950;2023-03-18T16:11:27;16.70;1.00
4727;DHT22;2377;51.734;8.950;2023-03-18T16:13:55;16.70;1.00
4727;DHT22;2377;51.734;8.950;2023-03-18T16:16:26;16.70;1.00
4727;DHT22;2377;51.734;8.950;2023-03-18T16:18:54;16.80;1.00
4727;DHT22;2377;51.734;8.950;2023-03-18T16:21:23;16.80;1.00
4727;DHT22;2377;51.734;8.950;2023-03-18T16:23:51;16.80;1.00
4727;DHT22;2377;51.734;8.950;2023-03-18T16:26:19;16.80;1.00
4727;DHT22;2377;51.734;8.950;2023-03-18T16:28:47;16.80;1.00
4727;DHT22;2377;51.734;8.950;2023-03-18T16:31:14;16.70;1.00
4727;DHT22;2377;51.734;8.950;2023-03-18T16:33:42;16.60;1.00
4727;DHT22;2377;51.734;8.950;2023-03-18T16:36:21;16.60;1.00
4727;DHT22;2377;51.734;8.950;2023-03-18T16:38:52;16.50;1.00
4727;DHT22;2377;51.734;8.950;2023-03-18T16:41:19;16.40;1.00
4727;DHT22;2377;51.734;8.950;2023-03-18T16:43:46;16.30;1.00
4727;DHT22;2377;51.734;8.950;2023-03-18T16:46:15;16.20;1.00
4727;DHT22;2377;51.734;8.950;2023-03-18T16:48:46;16.20;1.00
4727;DHT22;2377;51.734;8.950;2023-03-18T16:51:14;16.10;1.00
4727;DHT22;2377;51.734;8.950;2023-03-18T16:53:43;16.10;1.00
4727;DHT22;2377;51.734;8.950;2023-03-18T16:56:14;16.10;1.00
4727;DHT22;2377;51.734;8.950;2023-03-18T16:58:45;16.00;1.00
4727;DHT22;2377;51.734;8.950;2023-03-18T17:01:14;16.00;1.00